Time;durP1;ratioP1;P1;durP2;ratioP2;P2;SDS_P1;SDS_P2;PMS_P1;PMS_P2;Temp;Humidity;BMP_temperature;BMP_pressure;BME280_temperature;BME280_humidity;BME280_pressure;Samples;Min_cycle;Max_cycle;Signal;HPM_P1;HPM_P2
2021/08/18 00:01:45;;;;;;;1.35;1.10;;;18.80;66.00;;;;;;5055774;28;20020;-78
2021/08/18 00:04:11;;;;;;;1.25;1.08;;;18.80;66.00;;;;;;5039297;28;20107;-76
2021/08/18 00:06:37;;;;;;;1.10;1.00;;;18.80;66.20;;;;;;5055526;28;20461;-75
2021/08/18 00:09:05;;;;;;;1.42;1.08;;;18.80;66.00;;;;;;5071826;28;20493;-76
2021/08/18 00:11:32;;;;;;;1.13;1.02;;;18.80;66.00;;;;;;5073073;28;20028;-76
2021/08/18 00:13:58;;;;;;;1.30;1.00;;;18.80;66.00;;;;;;5055369;28;20059;-76
2021/08/18 00:16:27;;;;;;;1.58;1.30;;;18.80;66.10;;;;;;5073425;28;20032;-75
2021/08/18 00:18:56;;;;;;;1.40;1.20;;;18.80;66.10;;;;;;5055435;28;20477;-76
2021/08/18 00:21:23;;;;;;;1.10;1.00;;;18.80;66.00;;;;;;5054852;28;20028;-76
2021/08/18 00:23:49;;;;;;;1.35;1.10;;;18.80;66.00;;;;;;5071922;28;20426;-77
2021/08/18 00:26:16;;;;;;;1.33;1.20;;;18.80;66.00;;;;;;5055029;28;20544;-76
2021/08/18 00:28:42;;;;;;;1.38;1.08;;;18.80;66.10;;;;;;5072403;28;20032;-75
2021/08/18 00:31:11;;;;;;;1.30;1.20;;;18.80;66.10;;;;;;5071868;28;20025;-75
2021/08/18 00:33:36;;;;;;;1.10;1.00;;;18.80;66.10;;;;;;5071172;28;20457;-76
2021/08/18 00:36:04;;;;;;;1.38;1.27;;;18.80;66.10;;;;;;5055233;28;20365;-75
2021/08/18 00:38:29;;;;;;;1.40;1.30;;;18.80;66.10;;;;;;5054288;28;20048;-75
2021/08/18 00:40:55;;;;;;;1.58;1.30;;;18.80;66.10;;;;;;5054988;28;20025;-75
2021/08/18 00:43:21;;;;;;;1.25;1.08;;;18.80;66.10;;;;;;5055172;28;20032;-75
2021/08/18 00:45:47;;;;;;;1.77;1.50;;;18.80;66.10;;;;;;5054808;28;20035;-75
2021/08/18 00:48:12;;;;;;;1.30;1.20;;;18.80;66.10;;;;;;5072942;28;20135;-75
2021/08/18 00:50:38;;;;;;;1.40;1.30;;;18.80;66.10;;;;;;5071655;28;20112;-75
2021/08/18 00:53:04;;;;;;;1.48;1.30;;;18.80;66.10;;;;;;5054725;28;20101;-75
2021/08/18 00:55:30;;;;;;;1.83;1.42;;;18.80;66.20;;;;;;5071239;28;20594;-75
2021/08/18 00:57:57;;;;;;;1.30;1.20;;;18.80;66.10;;;;;;5071084;28;20138;-76
2021/08/18 01:00:24;;;;;;;1.83;1.40;;;18.80;66.10;;;;;;5070883;28;20491;-75
2021/08/18 01:02:50;;;;;;;1.50;1.33;;;18.80;66.10;;;;;;5072139;28;20046;-75
2021/08/18 01:05:25;;;;;;;1.52;1.27;;;18.80;66.10;;;;;;5054656;28;20111;-76
2021/08/18 01:07:52;;;;;;;1.83;1.27;;;18.80;66.30;;;;;;5071815;28;20100;-75
2021/08/18 01:10:21;;;;;;;1.40;1.30;;;18.80;66.10;;;;;;5072066;28;20047;-75
2021/08/18 01:12:47;;;;;;;1.80;1.35;;;18.80;66.20;;;;;;5070585;28;20064;-75
2021/08/18 01:15:15;;;;;;;1.88;1.48;;;18.80;66.20;;;;;;5054203;28;20089;-76
2021/08/18 01:17:47;;;;;;;1.63;1.30;;;18.80;66.10;;;;;;5053979;28;20484;-75
2021/08/18 01:20:16;;;;;;;2.03;1.50;;;18.80;66.20;;;;;;5055407;28;20025;-76
2021/08/18 01:22:43;;;;;;;1.67;1.30;;;18.80;66.10;;;;;;5070471;28;20031;-75
2021/08/18 01:25:09;;;;;;;1.98;1.58;;;18.80;66.10;;;;;;5071339;28;20035;-75
2021/08/18 01:27:37;;;;;;;1.52;1.40;;;18.80;66.10;;;;;;5071456;28;20058;-77
2021/08/18 01:30:05;;;;;;;1.55;1.45;;;18.80;66.20;;;;;;5071298;28;20028;-75
2021/08/18 01:32:42;;;;;;;1.30;1.20;;;18.80;66.20;;;;;;5054036;28;20070;-76
2021/08/18 01:35:51;;;;;;;1.80;1.50;;;18.80;66.20;;;;;;5070146;28;20035;-75
2021/08/18 01:38:19;;;;;;;1.65;1.25;;;18.80;66.20;;;;;;5047882;28;20033;-75
2021/08/18 01:40:50;;;;;;;1.55;1.30;;;18.80;66.10;;;;;;5062621;28;20098;-77
2021/08/18 01:43:16;;;;;;;1.45;1.35;;;18.80;66.20;;;;;;5070311;28;21924;-76
2021/08/18 01:45:46;;;;;;;1.92;1.48;;;18.80;66.20;;;;;;5071265;28;20488;-75
2021/08/18 01:48:18;;;;;;;1.85;1.42;;;18.80;66.20;;;;;;5071010;28;20033;-75
2021/08/18 01:50:49;;;;;;;1.55;1.40;;;18.70;66.20;;;;;;5071597;28;20032;-76
2021/08/18 01:53:17;;;;;;;1.30;1.20;;;18.80;66.30;;;;;;5071453;28;20028;-75
2021/08/18 01:55:43;;;;;;;1.45;1.30;;;18.80;66.20;;;;;;5070371;28;20032;-75
2021/08/18 01:58:09;;;;;;;1.92;1.30;;;18.80;66.20;;;;;;5070851;28;20045;-75
2021/08/18 02:00:35;;;;;;;1.98;1.60;;;18.80;66.90;;;;;;5069694;28;20120;-75
2021/08/18 02:03:01;;;;;;;1.40;1.30;;;18.80;66.20;;;;;;5071686;28;20115;-75
2021/08/18 02:05:27;;;;;;;1.48;1.38;;;18.70;66.20;;;;;;5069731;28;20064;-75
2021/08/18 02:07:54;;;;;;;1.27;1.17;;;18.80;66.20;;;;;;5069888;28;20082;-75
2021/08/18 02:10:20;;;;;;;1.65;1.42;;;18.80;66.20;;;;;;5069331;28;20116;-76
2021/08/18 02:12:46;;;;;;;1.40;1.30;;;18.80;66.20;;;;;;5053639;28;20116;-75
2021/08/18 02:15:19;;;;;;;1.63;1.42;;;18.80;66.20;;;;;;5053388;28;20489;-75
2021/08/18 02:17:47;;;;;;;1.83;1.50;;;18.80;66.30;;;;;;5055367;28;20063;-75
2021/08/18 02:20:16;;;;;;;2.20;1.50;;;18.80;66.20;;;;;;5054176;28;20071;-74
2021/08/18 02:22:42;;;;;;;2.60;1.58;;;18.80;66.20;;;;;;5069659;28;20028;-75
2021/08/18 02:25:08;;;;;;;1.88;1.52;;;18.80;66.30;;;;;;5036847;28;20028;-75
2021/08/18 02:27:34;;;;;;;1.60;1.42;;;18.70;66.20;;;;;;5052705;28;20116;-75
2021/08/18 02:30:00;;;;;;;1.73;1.40;;;18.70;66.20;;;;;;5070254;28;20139;-76
2021/08/18 02:32:26;;;;;;;1.98;1.70;;;18.80;66.20;;;;;;5053119;28;20086;-76
2021/08/18 02:34:52;;;;;;;1.52;1.42;;;18.70;66.20;;;;;;5071248;28;20048;-75
2021/08/18 02:37:18;;;;;;;2.45;1.50;;;18.80;66.30;;;;;;5070202;28;20107;-75
2021/08/18 02:39:44;;;;;;;1.40;1.30;;;18.70;66.20;;;;;;5069632;28;20044;-75
2021/08/18 02:42:10;;;;;;;2.00;1.60;;;18.80;66.30;;;;;;5053111;28;20468;-75
2021/08/18 02:44:35;;;;;;;1.60;1.50;;;18.70;66.30;;;;;;5052567;28;20029;-76
2021/08/18 02:47:01;;;;;;;1.75;1.60;;;18.70;66.20;;;;;;5069912;28;20583;-75
2021/08/18 02:49:27;;;;;;;2.67;1.55;;;18.70;66.20;;;;;;5071513;28;20027;-75
2021/08/18 02:51:53;;;;;;;2.05;1.52;;;18.70;66.20;;;;;;5069154;28;20104;-76
2021/08/18 02:54:19;;;;;;;2.70;1.60;;;18.80;66.30;;;;;;5053417;28;20078;-75
2021/08/18 02:56:44;;;;;;;1.90;1.55;;;18.70;66.20;;;;;;5052084;28;20021;-75
2021/08/18 02:59:11;;;;;;;1.58;1.48;;;18.80;66.30;;;;;;5053247;28;20037;-75
2021/08/18 03:01:40;;;;;;;1.80;1.40;;;18.70;66.20;;;;;;5052222;28;20047;-75
2021/08/18 03:04:05;;;;;;;1.90;1.40;;;18.80;66.30;;;;;;5060137;28;20045;-74
2021/08/18 03:06:31;;;;;;;2.50;1.67;;;18.70;66.20;;;;;;5066941;28;20029;-74
2021/08/18 03:08:57;;;;;;;1.70;1.50;;;18.70;66.20;;;;;;5052420;28;20856;-77
2021/08/18 03:11:22;;;;;;;1.88;1.50;;;18.70;66.20;;;;;;5053064;28;20108;-75
2021/08/18 03:13:48;;;;;;;2.03;1.52;;;18.70;66.20;;;;;;5052020;28;20518;-74
2021/08/18 03:16:14;;;;;;;2.08;1.45;;;18.70;66.20;;;;;;5070042;28;20112;-75
2021/08/18 03:18:39;;;;;;;2.00;1.60;;;18.70;66.20;;;;;;5069898;28;20115;-75
2021/08/18 03:21:05;;;;;;;1.52;1.40;;;18.70;66.20;;;;;;5069139;28;20024;-75
2021/08/18 03:23:31;;;;;;;2.33;1.35;;;18.70;66.20;;;;;;5073062;28;20400;-75
2021/08/18 03:25:57;;;;;;;1.40;1.30;;;18.70;66.20;;;;;;5072693;28;20479;-75
2021/08/18 03:28:22;;;;;;;1.63;1.45;;;18.80;66.30;;;;;;5073583;28;20522;-74
2021/08/18 03:30:48;;;;;;;1.48;1.30;;;18.80;66.30;;;;;;5072351;28;20032;-76
2021/08/18 03:33:14;;;;;;;3.25;1.35;;;18.70;66.30;;;;;;5073161;28;20483;-75
2021/08/18 03:35:39;;;;;;;1.75;1.33;;;18.70;66.20;;;;;;5072409;28;20040;-75
2021/08/18 03:38:05;;;;;;;1.85;1.30;;;18.70;66.30;;;;;;5072375;28;20416;-75
2021/08/18 03:40:31;;;;;;;1.73;1.50;;;18.70;66.30;;;;;;5055639;28;20033;-75
2021/08/18 03:42:56;;;;;;;1.73;1.33;;;18.70;66.30;;;;;;5073079;28;20382;-74
2021/08/18 03:45:22;;;;;;;2.05;1.20;;;18.70;66.90;;;;;;5039274;28;20032;-75
2021/08/18 03:47:48;;;;;;;1.33;1.23;;;18.70;66.30;;;;;;5055790;28;20032;-75
2021/08/18 03:50:14;;;;;;;1.20;1.10;;;18.70;66.30;;;;;;5055648;28;20059;-75
2021/08/18 03:52:41;;;;;;;1.15;1.02;;;18.70;66.30;;;;;;5055686;28;20040;-75
2021/08/18 03:55:08;;;;;;;1.27;1.17;;;18.70;66.30;;;;;;5072953;28;20100;-75
2021/08/18 03:57:34;;;;;;;1.40;1.20;;;18.70;66.30;;;;;;5072222;28;20404;-75
2021/08/18 04:00:00;;;;;;;1.55;1.40;;;18.70;66.30;;;;;;5071716;28;20040;-74
2021/08/18 04:02:26;;;;;;;1.17;1.08;;;18.70;66.30;;;;;;5073711;28;20036;-74
2021/08/18 04:04:52;;;;;;;1.20;1.10;;;18.70;66.30;;;;;;5060745;28;20390;-75
2021/08/18 04:07:18;;;;;;;2.50;1.63;;;18.70;66.30;;;;;;5073104;28;20051;-76
2021/08/18 04:09:43;;;;;;;1.38;1.27;;;18.70;66.30;;;;;;5055226;28;20037;-74
2021/08/18 04:12:09;;;;;;;2.17;1.40;;;18.70;66.40;;;;;;5071602;28;20029;-74
2021/08/18 04:14:35;;;;;;;1.50;1.30;;;18.70;66.40;;;;;;5071988;28;20115;-75
2021/08/18 04:17:01;;;;;;;1.10;1.08;;;18.70;66.40;;;;;;5072561;28;20082;-75
2021/08/18 04:19:27;;;;;;;1.73;1.45;;;18.70;66.40;;;;;;5055158;28;20037;-74
2021/08/18 04:21:52;;;;;;;1.30;1.20;;;18.70;66.40;;;;;;5054211;28;20063;-75
2021/08/18 04:24:18;;;;;;;1.30;1.20;;;18.70;66.40;;;;;;5071257;28;20052;-74
2021/08/18 04:26:44;;;;;;;1.25;1.15;;;18.70;66.40;;;;;;5071734;28;20051;-75
2021/08/18 04:29:10;;;;;;;1.75;1.13;;;18.70;66.40;;;;;;5054997;28;20488;-74
2021/08/18 04:31:35;;;;;;;1.17;1.08;;;18.70;66.40;;;;;;5073380;28;20025;-75
2021/08/18 04:34:01;;;;;;;1.25;1.10;;;18.70;66.40;;;;;;5071432;28;20087;-76
2021/08/18 04:36:27;;;;;;;2.67;1.10;;;18.70;66.50;;;;;;5071547;28;20069;-75
2021/08/18 04:38:52;;;;;;;1.85;1.10;;;18.70;66.40;;;;;;5071430;28;20048;-75
2021/08/18 04:41:18;;;;;;;1.48;1.20;;;18.60;66.40;;;;;;5054964;28;20510;-74
2021/08/18 04:43:44;;;;;;;1.40;1.30;;;18.70;66.60;;;;;;5054600;28;20025;-75
2021/08/18 04:46:09;;;;;;;1.20;1.10;;;18.60;66.40;;;;;;5070906;28;20028;-74
2021/08/18 04:48:35;;;;;;;1.45;1.23;;;18.70;66.50;;;;;;5072201;28;20039;-73
2021/08/18 04:51:02;;;;;;;1.65;1.25;;;18.60;66.40;;;;;;5071931;28;20021;-74
2021/08/18 04:53:28;;;;;;;1.48;1.25;;;18.60;66.50;;;;;;5054719;28;20037;-74
2021/08/18 04:55:54;;;;;;;1.23;1.13;;;18.60;66.40;;;;;;5072248;28;20048;-76
2021/08/18 04:58:20;;;;;;;1.08;0.98;;;18.60;66.40;;;;;;5070372;28;20083;-75
2021/08/18 05:00:46;;;;;;;1.50;1.40;;;18.70;66.50;;;;;;5072199;28;20028;-75
2021/08/18 05:03:15;;;;;;;2.80;1.10;;;18.70;66.50;;;;;;5054408;28;20028;-74
2021/08/18 05:05:41;;;;;;;1.45;1.15;;;18.60;66.50;;;;;;5056126;28;20029;-74
2021/08/18 05:08:07;;;;;;;1.27;1.17;;;18.60;66.50;;;;;;5070738;28;20063;-74
2021/08/18 05:10:34;;;;;;;1.52;1.30;;;18.60;66.50;;;;;;5037477;28;20418;-75
2021/08/18 05:13:00;;;;;;;1.17;1.08;;;18.60;66.50;;;;;;5053858;28;20035;-75
2021/08/18 05:15:27;;;;;;;1.30;1.20;;;18.60;66.50;;;;;;5053835;28;20032;-75
2021/08/18 05:17:53;;;;;;;1.58;1.35;;;18.70;66.60;;;;;;5070628;28;20044;-74
2021/08/18 05:20:20;;;;;;;1.33;1.23;;;18.60;66.50;;;;;;5070028;28;20032;-75
2021/08/18 05:22:47;;;;;;;1.50;1.40;;;18.60;66.50;;;;;;5070784;28;20024;-76
2021/08/18 05:25:14;;;;;;;2.45;1.30;;;18.60;66.50;;;;;;5054562;28;20028;-74
2021/08/18 05:27:40;;;;;;;1.48;1.30;;;18.60;66.60;;;;;;5036908;28;20075;-75
2021/08/18 05:30:09;;;;;;;1.63;1.23;;;18.60;66.50;;;;;;5070588;28;20028;-74
2021/08/18 05:32:35;;;;;;;1.42;1.10;;;18.60;66.50;;;;;;5070160;28;20036;-75
2021/08/18 05:35:01;;;;;;;1.20;1.10;;;18.60;66.60;;;;;;5070056;28;20025;-74
2021/08/18 05:37:27;;;;;;;1.33;1.13;;;18.60;66.60;;;;;;5070624;28;20091;-75
2021/08/18 05:39:53;;;;;;;1.50;1.20;;;18.60;66.60;;;;;;5053582;28;20467;-76
2021/08/18 05:42:18;;;;;;;1.30;1.20;;;18.60;66.60;;;;;;5070757;28;20131;-73
2021/08/18 05:44:44;;;;;;;1.30;1.15;;;18.60;66.60;;;;;;5061952;28;20293;-75
2021/08/18 05:47:10;;;;;;;1.83;1.15;;;18.60;66.70;;;;;;5053465;28;20481;-75
2021/08/18 05:49:35;;;;;;;1.15;1.00;;;18.60;66.60;;;;;;5070188;28;20041;-75
2021/08/18 05:52:01;;;;;;;1.75;1.05;;;18.60;66.60;;;;;;5053520;28;20519;-74
2021/08/18 05:54:27;;;;;;;1.33;1.23;;;18.60;66.60;;;;;;5053336;28;20028;-77
2021/08/18 05:56:53;;;;;;;2.13;1.10;;;18.60;66.60;;;;;;5069695;28;20469;-77
2021/08/18 05:59:19;;;;;;;1.45;1.20;;;18.70;66.70;;;;;;5070838;28;20091;-77
2021/08/18 06:01:45;;;;;;;2.17;1.25;;;18.60;66.70;;;;;;5071118;28;20484;-77
2021/08/18 06:04:10;;;;;;;1.38;1.13;;;18.60;66.70;;;;;;5053582;28;20109;-76
2021/08/18 06:06:36;;;;;;;1.20;1.00;;;18.70;66.70;;;;;;5053309;28;20040;-77
2021/08/18 06:09:02;;;;;;;2.00;1.33;;;18.70;66.80;;;;;;5053273;28;20090;-77
2021/08/18 06:11:28;;;;;;;1.20;1.10;;;18.70;66.80;;;;;;5053209;28;20032;-77
2021/08/18 06:13:54;;;;;;;1.02;0.90;;;18.70;66.70;;;;;;5036691;28;20028;-76
2021/08/18 06:16:20;;;;;;;1.40;1.13;;;18.70;66.70;;;;;;5036910;28;20024;-77
2021/08/18 06:18:47;;;;;;;1.10;1.00;;;18.70;66.70;;;;;;5036644;28;20090;-76
2021/08/18 06:21:13;;;;;;;1.10;1.00;;;18.70;66.80;;;;;;5069526;28;20074;-77
2021/08/18 06:23:39;;;;;;;1.33;1.20;;;18.70;66.80;;;;;;5053362;28;20465;-77
2021/08/18 06:26:04;;;;;;;1.15;1.05;;;18.70;66.80;;;;;;5071238;28;20058;-77
2021/08/18 06:28:30;;;;;;;1.25;1.10;;;18.70;66.70;;;;;;5053252;28;20066;-77
2021/08/18 06:30:57;;;;;;;1.77;1.20;;;18.70;66.80;;;;;;5052674;28;20960;-77
2021/08/18 06:33:23;;;;;;;1.25;1.15;;;18.70;66.70;;;;;;5070121;28;20104;-77
2021/08/18 06:35:49;;;;;;;1.17;1.08;;;18.70;66.80;;;;;;5070421;28;20032;-77
2021/08/18 06:38:14;;;;;;;1.20;1.10;;;18.70;66.80;;;;;;5053079;28;20035;-76
2021/08/18 06:40:40;;;;;;;1.05;1.00;;;18.80;66.80;;;;;;5036364;28;20039;-77
2021/08/18 06:43:06;;;;;;;1.20;1.10;;;18.70;66.70;;;;;;5070616;28;20035;-76
2021/08/18 06:45:32;;;;;;;0.95;0.93;;;18.80;66.80;;;;;;5070153;28;20033;-76
2021/08/18 06:47:57;;;;;;;1.10;1.00;;;18.80;66.80;;;;;;5070261;28;20110;-77
2021/08/18 06:50:23;;;;;;;1.52;1.17;;;18.80;66.80;;;;;;5070259;28;20377;-76
2021/08/18 06:52:49;;;;;;;1.52;1.20;;;18.80;66.70;;;;;;5069848;28;20075;-77
2021/08/18 06:55:15;;;;;;;1.13;1.02;;;18.80;66.80;;;;;;5052924;28;20033;-76
2021/08/18 06:57:41;;;;;;;1.27;1.17;;;18.80;66.70;;;;;;5055584;28;20052;-77
2021/08/18 07:00:08;;;;;;;1.23;1.02;;;18.80;66.80;;;;;;5055964;28;20037;-76
2021/08/18 07:02:49;;;;;;;1.30;0.90;;;18.80;66.70;;;;;;5073696;28;20028;-76
2021/08/18 07:05:15;;;;;;;1.25;1.10;;;18.90;66.80;;;;;;5074388;28;20035;-76
2021/08/18 07:07:41;;;;;;;1.35;0.93;;;18.80;66.70;;;;;;5074053;28;20032;-76
2021/08/18 07:10:08;;;;;;;0.82;0.82;;;18.90;66.80;;;;;;5072444;28;20058;-76
2021/08/18 07:12:34;;;;;;;1.58;1.23;;;18.90;66.80;;;;;;5072580;28;20480;-76
2021/08/18 07:15:00;;;;;;;1.23;1.05;;;18.90;66.70;;;;;;5055986;28;20033;-76
2021/08/18 07:17:25;;;;;;;1.30;1.20;;;18.90;66.70;;;;;;5039548;28;20043;-76
2021/08/18 07:19:51;;;;;;;2.05;1.38;;;18.90;66.80;;;;;;5073240;28;20037;-76
2021/08/18 07:22:17;;;;;;;1.83;1.40;;;18.90;66.80;;;;;;5072585;28;20647;-77
2021/08/18 07:24:42;;;;;;;1.00;1.00;;;18.90;66.70;;;;;;5073105;28;20052;-76
2021/08/18 07:27:08;;;;;;;1.27;1.17;;;18.90;66.80;;;;;;5039517;28;20024;-76
2021/08/18 07:29:34;;;;;;;0.75;0.75;;;19.00;66.80;;;;;;5072652;28;20029;-77
2021/08/18 07:31:59;;;;;;;1.45;0.90;;;18.90;66.70;;;;;;5074355;28;20111;-77
2021/08/18 07:34:25;;;;;;;1.10;1.00;;;19.00;66.80;;;;;;5055892;28;20086;-77
2021/08/18 07:36:51;;;;;;;1.10;0.90;;;19.00;66.80;;;;;;5073163;28;20064;-77
2021/08/18 07:39:17;;;;;;;0.98;0.80;;;19.00;66.70;;;;;;5056344;28;20036;-76
2021/08/18 07:41:43;;;;;;;0.82;0.82;;;19.00;66.70;;;;;;5055650;28;20045;-76
2021/08/18 07:44:08;;;;;;;1.00;0.90;;;19.00;66.70;;;;;;5072645;28;20025;-76
2021/08/18 07:46:34;;;;;;;0.85;0.85;;;19.00;66.60;;;;;;5073904;28;20028;-76
2021/08/18 07:49:00;;;;;;;1.00;0.90;;;19.10;66.70;;;;;;5039172;28;20390;-76
2021/08/18 07:51:26;;;;;;;1.58;1.10;;;19.10;66.70;;;;;;5039403;28;20457;-76
2021/08/18 07:53:51;;;;;;;1.20;1.10;;;19.10;66.60;;;;;;5072079;28;20058;-76
2021/08/18 07:56:17;;;;;;;1.80;1.10;;;19.10;66.60;;;;;;5073500;28;20166;-76
2021/08/18 07:58:43;;;;;;;1.48;1.10;;;19.10;66.60;;;;;;5073019;28;20083;-77
2021/08/18 08:01:08;;;;;;;1.45;1.10;;;19.10;66.60;;;;;;5071850;28;20025;-76
2021/08/18 08:03:34;;;;;;;2.17;1.40;;;19.20;66.60;;;;;;5072533;28;20059;-76
2021/08/18 08:06:00;;;;;;;1.35;1.10;;;19.20;66.60;;;;;;5071730;28;20068;-77
2021/08/18 08:08:26;;;;;;;1.40;1.15;;;19.20;66.60;;;;;;5055332;28;20036;-76
2021/08/18 08:10:52;;;;;;;1.08;0.90;;;19.20;66.60;;;;;;5071957;28;20037;-76
2021/08/18 08:13:17;;;;;;;1.05;0.98;;;19.20;66.50;;;;;;5055145;28;20037;-76
2021/08/18 08:15:43;;;;;;;1.23;1.13;;;19.30;66.60;;;;;;5072339;28;20039;-76
2021/08/18 08:18:10;;;;;;;1.05;1.00;;;19.30;66.50;;;;;;5071655;28;20413;-76
2021/08/18 08:20:38;;;;;;;0.80;0.80;;;19.30;66.60;;;;;;5071769;28;20020;-76
2021/08/18 08:23:05;;;;;;;1.45;1.05;;;19.30;66.50;;;;;;5055463;28;20381;-77
2021/08/18 08:25:31;;;;;;;1.00;0.90;;;19.30;66.50;;;;;;5071176;28;20408;-76
2021/08/18 08:27:57;;;;;;;1.73;1.08;;;19.30;66.50;;;;;;5072799;28;20032;-76
2021/08/18 08:30:23;;;;;;;0.88;0.80;;;19.40;66.50;;;;;;5072871;28;20033;-76
2021/08/18 08:32:49;;;;;;;0.90;0.90;;;19.40;66.50;;;;;;5072871;28;20055;-76
2021/08/18 08:35:16;;;;;;;0.93;0.93;;;19.40;66.40;;;;;;5054337;28;20024;-77
2021/08/18 08:37:44;;;;;;;1.00;0.90;;;19.40;67.10;;;;;;5038474;28;20081;-76
2021/08/18 08:40:11;;;;;;;1.10;0.90;;;19.40;66.40;;;;;;5038059;28;20037;-76
2021/08/18 08:42:41;;;;;;;1.20;1.10;;;19.50;66.40;;;;;;5054094;28;20028;-76
2021/08/18 08:45:09;;;;;;;0.82;0.82;;;19.50;66.40;;;;;;5053999;28;20067;-77
2021/08/18 08:47:35;;;;;;;1.08;0.95;;;19.50;66.40;;;;;;5054215;28;20128;-76
2021/08/18 08:50:07;;;;;;;1.00;0.90;;;19.50;66.40;;;;;;5054220;28;20078;-77
2021/08/18 08:52:35;;;;;;;1.55;1.20;;;19.50;66.40;;;;;;5070865;28;20139;-76
2021/08/18 08:55:03;;;;;;;1.10;1.00;;;19.60;66.40;;;;;;5071865;28;20104;-77
2021/08/18 08:57:29;;;;;;;0.90;0.90;;;19.60;66.40;;;;;;5071689;28;20060;-76
2021/08/18 08:59:54;;;;;;;1.10;1.00;;;19.60;66.50;;;;;;5072421;28;20036;-77
2021/08/18 09:02:21;;;;;;;1.45;1.10;;;19.70;66.50;;;;;;5071073;28;20040;-76
2021/08/18 09:04:48;;;;;;;1.48;1.25;;;19.70;66.50;;;;;;5070733;28;20036;-77
2021/08/18 09:07:23;;;;;;;1.20;1.10;;;19.70;66.50;;;;;;5054446;28;20416;-76
2021/08/18 09:10:05;;;;;;;1.30;1.20;;;19.80;66.70;;;;;;5072142;28;20035;-77
2021/08/18 09:12:36;;;;;;;1.25;1.15;;;19.80;66.60;;;;;;5071256;28;20102;-76
2021/08/18 09:15:22;;;;;;;1.10;1.00;;;19.80;66.50;;;;;;5057421;28;20464;-77
2021/08/18 09:17:49;;;;;;;1.02;1.00;;;19.80;66.60;;;;;;5071849;28;20025;-76
2021/08/18 09:20:17;;;;;;;2.47;1.13;;;19.90;66.50;;;;;;5071607;28;20074;-76
2021/08/18 09:22:57;;;;;;;1.40;1.30;;;19.90;66.60;;;;;;5071598;28;20029;-77
2021/08/18 09:25:43;;;;;;;1.92;1.48;;;20.00;66.70;;;;;;5070830;28;20103;-76
2021/08/18 09:28:08;;;;;;;1.27;1.17;;;20.00;66.60;;;;;;5070447;28;20028;-76
2021/08/18 09:30:37;;;;;;;1.42;1.30;;;20.00;66.50;;;;;;5070903;28;20461;-77
2021/08/18 09:33:11;;;;;;;1.20;1.10;;;20.00;66.60;;;;;;5037239;28;20036;-76
2021/08/18 09:35:38;;;;;;;1.58;1.20;;;20.10;66.60;;;;;;5070603;28;20024;-76
2021/08/18 09:38:09;;;;;;;1.48;1.20;;;20.10;66.50;;;;;;5070586;28;20048;-76
2021/08/18 09:40:38;;;;;;;1.27;1.17;;;20.10;66.50;;;;;;5054099;28;20032;-76
2021/08/18 09:43:21;;;;;;;1.90;1.23;;;20.20;66.50;;;;;;5071481;28;20031;-76
2021/08/18 09:46:05;;;;;;;1.25;1.15;;;20.20;66.60;;;;;;5054008;28;20068;-76
2021/08/18 09:48:33;;;;;;;1.75;1.30;;;20.30;66.50;;;;;;5072007;28;20032;-76
2021/08/18 09:51:00;;;;;;;1.50;1.30;;;20.30;66.30;;;;;;5070155;28;20115;-76
2021/08/18 09:53:40;;;;;;;2.50;1.50;;;20.30;66.40;;;;;;5070488;28;20024;-76
2021/08/18 09:56:11;;;;;;;1.63;1.35;;;20.40;66.40;;;;;;5071253;28;20036;-76
2021/08/18 09:58:39;;;;;;;1.75;1.30;;;20.40;66.20;;;;;;5070452;28;20041;-76
2021/08/18 10:01:10;;;;;;;1.70;1.42;;;20.40;66.10;;;;;;5069853;28;20119;-76
2021/08/18 10:03:37;;;;;;;1.60;1.42;;;20.50;66.20;;;;;;5053152;28;20028;-76
2021/08/18 10:06:05;;;;;;;1.98;1.45;;;20.60;66.10;;;;;;5071162;28;20063;-76
2021/08/18 10:08:32;;;;;;;1.77;1.52;;;20.60;66.10;;;;;;5069701;28;20033;-77
2021/08/18 10:10:59;;;;;;;1.48;1.20;;;20.60;66.00;;;;;;5070028;28;20090;-76
2021/08/18 10:13:25;;;;;;;1.83;1.50;;;20.60;65.90;;;;;;5069510;28;20528;-76
2021/08/18 10:15:52;;;;;;;2.42;1.70;;;20.70;65.90;;;;;;5071500;28;20032;-77
2021/08/18 10:18:37;;;;;;;1.80;1.60;;;20.70;65.80;;;;;;5052811;28;20033;-77
2021/08/18 10:21:06;;;;;;;1.60;1.50;;;20.80;65.90;;;;;;5070510;28;20029;-76
2021/08/18 10:23:47;;;;;;;2.08;1.70;;;20.80;65.60;;;;;;5069505;28;20025;-76
2021/08/18 10:26:39;;;;;;;2.55;2.00;;;20.90;65.80;;;;;;5070578;28;20056;-77
2021/08/18 10:29:05;;;;;;;2.05;1.70;;;20.90;65.80;;;;;;5069863;28;20028;-77
2021/08/18 10:31:42;;;;;;;2.20;1.90;;;20.90;65.50;;;;;;5073278;28;20039;-76
2021/08/18 10:34:23;;;;;;;2.15;1.77;;;20.90;65.60;;;;;;5057117;28;20066;-77
2021/08/18 10:36:53;;;;;;;2.13;1.80;;;21.00;65.60;;;;;;5073623;28;20024;-77
2021/08/18 10:39:19;;;;;;;2.50;1.98;;;21.00;65.40;;;;;;5056490;28;20159;-77
2021/08/18 10:42:01;;;;;;;2.33;1.92;;;21.10;65.40;;;;;;5074016;28;20107;-77
2021/08/18 10:44:48;;;;;;;2.13;1.73;;;21.10;65.50;;;;;;5073368;28;20062;-77
2021/08/18 10:47:24;;;;;;;2.42;1.73;;;21.10;65.40;;;;;;5057174;28;20094;-77
2021/08/18 10:49:55;;;;;;;2.50;1.92;;;21.20;65.30;;;;;;5060233;28;20021;-76
2021/08/18 10:52:29;;;;;;;2.30;1.80;;;21.20;65.30;;;;;;5074471;28;20066;-76
2021/08/18 10:55:05;;;;;;;;;;;21.20;65.30;;;;;;5075161;28;20036;-76
2021/08/18 10:57:33;;;;;;;;;;;21.30;65.20;;;;;;5074652;28;19924;-77
2021/08/18 11:00:26;;;;;;;1.75;1.63;;;21.30;65.00;;;;;;5073570;28;19916;-77
2021/08/18 11:03:13;;;;;;;2.22;1.98;;;21.30;65.10;;;;;;5066383;28;20041;-77
2021/08/18 11:05:39;;;;;;;2.25;1.98;;;21.30;65.20;;;;;;5073519;28;20161;-77
2021/08/18 11:08:15;;;;;;;3.22;2.40;;;21.30;65.20;;;;;;5074710;28;20459;-76
2021/08/18 11:10:42;;;;;;;2.38;1.85;;;21.40;65.40;;;;;;5074133;28;20054;-77
2021/08/18 11:13:12;;;;;;;2.42;1.98;;;21.40;65.30;;;;;;5056874;28;20047;-77
2021/08/18 11:15:40;;;;;;;2.63;2.05;;;21.40;65.30;;;;;;5073761;28;20052;-77
2021/08/18 11:18:07;;;;;;;3.03;2.05;;;21.40;65.30;;;;;;5057005;28;20043;-76
2021/08/18 11:20:32;;;;;;;2.20;1.77;;;21.50;65.30;;;;;;5072170;28;20473;-77
2021/08/18 11:23:01;;;;;;;2.85;2.10;;;21.50;65.40;;;;;;5056994;28;20036;-76
2021/08/18 11:25:28;;;;;;;2.35;1.80;;;21.50;65.30;;;;;;5072533;28;20054;-77
2021/08/18 11:27:57;;;;;;;2.65;2.03;;;21.50;65.20;;;;;;5059410;28;20520;-77
2021/08/18 11:30:27;;;;;;;2.08;1.65;;;21.50;65.20;;;;;;5072216;28;20074;-77
2021/08/18 11:32:54;;;;;;;2.55;1.98;;;21.60;65.30;;;;;;5056050;28;20021;-76
2021/08/18 11:35:34;;;;;;;2.30;1.85;;;21.60;65.10;;;;;;5055777;28;20491;-77
2021/08/18 11:38:03;;;;;;;2.88;2.00;;;21.60;65.30;;;;;;5056249;28;20029;-78
2021/08/18 11:40:30;;;;;;;2.13;1.92;;;21.60;65.00;;;;;;5070802;28;20017;-77
2021/08/18 11:42:57;;;;;;;2.22;1.95;;;21.70;65.10;;;;;;5055138;28;20469;-78
2021/08/18 11:45:23;;;;;;;2.33;1.90;;;21.70;65.00;;;;;;5071603;28;20461;-76
2021/08/18 11:47:50;;;;;;;2.53;1.90;;;21.70;65.00;;;;;;5066970;28;20084;-76
2021/08/18 11:50:17;;;;;;;1.92;1.73;;;21.70;64.90;;;;;;5055895;28;20112;-77
2021/08/18 11:52:43;;;;;;;1.95;1.60;;;21.80;65.00;;;;;;5055519;28;20040;-77
2021/08/18 11:55:09;;;;;;;2.30;1.85;;;21.80;64.90;;;;;;5072901;28;20032;-76
2021/08/18 11:57:35;;;;;;;1.80;1.52;;;21.80;64.80;;;;;;5072011;28;20405;-77
2021/08/18 12:00:05;;;;;;;1.90;1.67;;;21.80;64.80;;;;;;5055754;28;20047;-77
2021/08/18 12:02:33;;;;;;;2.17;1.70;;;21.90;64.80;;;;;;5073562;28;20036;-78
2021/08/18 12:05:01;;;;;;;2.85;2.10;;;21.90;64.80;;;;;;5071915;28;20123;-77
2021/08/18 12:07:32;;;;;;;2.20;1.80;;;21.90;64.70;;;;;;5071832;28;20028;-77
2021/08/18 12:10:26;;;;;;;2.13;1.85;;;22.00;64.80;;;;;;5054219;28;20036;-77
2021/08/18 12:13:07;;;;;;;3.40;2.13;;;22.00;64.90;;;;;;5055065;28;20240;-78
2021/08/18 12:15:45;;;;;;;2.60;2.05;;;22.00;64.80;;;;;;5071596;28;20060;-78
2021/08/18 12:18:32;;;;;;;2.90;2.20;;;22.00;64.80;;;;;;5071174;28;20079;-77
2021/08/18 12:21:27;;;;;;;3.17;2.38;;;22.00;64.90;;;;;;5071648;28;20104;-77
2021/08/18 12:24:07;;;;;;;2.92;2.25;;;22.00;64.90;;;;;;5055024;28;20032;-77
2021/08/18 12:26:34;;;;;;;2.92;2.30;;;22.00;64.80;;;;;;5072890;28;20533;-77
2021/08/18 12:29:02;;;;;;;3.50;2.28;;;22.10;64.90;;;;;;5054755;28;20032;-77
2021/08/18 12:32:07;;;;;;;3.38;2.40;;;22.00;64.90;;;;;;5054941;28;20032;-77
2021/08/18 12:34:40;;;;;;;3.03;2.40;;;22.00;65.00;;;;;;5061464;28;20495;-76
2021/08/18 12:37:18;;;;;;;3.13;2.30;;;22.10;64.80;;;;;;5071262;28;20508;-77
2021/08/18 12:39:46;;;;;;;3.58;2.50;;;22.10;64.90;;;;;;5071466;28;20045;-77
2021/08/18 12:42:25;;;;;;;3.00;2.25;;;22.20;64.90;;;;;;5071672;28;20632;-76
2021/08/18 12:45:07;;;;;;;3.08;2.50;;;22.20;65.00;;;;;;5072693;28;20119;-77
2021/08/18 12:47:45;;;;;;;2.53;2.17;;;22.20;64.90;;;;;;5061342;28;20032;-76
2021/08/18 12:50:25;;;;;;;3.22;2.60;;;22.20;64.80;;;;;;5071082;28;20046;-77
2021/08/18 12:52:50;;;;;;;3.20;2.60;;;22.20;64.90;;;;;;5072485;28;20036;-76
2021/08/18 12:55:16;;;;;;;3.58;2.80;;;22.20;64.80;;;;;;5055090;28;20028;-76